createdAt,value
2023-05-29T00:01:41.995Z,75.63
2023-05-29T00:04:13.876Z,75.77
2023-05-29T00:06:45.547Z,76.07
2023-05-29T00:09:16.339Z,75.95
2023-05-29T00:11:51.765Z,75.40
2023-05-29T00:14:25.031Z,76.11
2023-05-29T00:16:57.904Z,76.00
2023-05-29T00:19:29.882Z,76.15
2023-05-29T00:22:01.407Z,76.45
2023-05-29T00:24:32.984Z,76.18
2023-05-29T00:27:03.248Z,76.34
2023-05-29T00:29:34.825Z,76.14
2023-05-29T00:32:08.056Z,76.19
2023-05-29T00:34:39.828Z,76.43
2023-05-29T00:37:09.981Z,76.57
2023-05-29T00:39:41.633Z,76.49
2023-05-29T00:42:13.225Z,76.59
2023-05-29T00:44:43.329Z,76.10
2023-05-29T00:47:15.795Z,76.16
2023-05-29T00:49:47.941Z,76.48
2023-05-29T00:52:19.985Z,76.77
2023-05-29T00:54:51.667Z,76.87
2023-05-29T00:57:22.555Z,76.57
2023-05-29T00:59:54.167Z,76.62
2023-05-29T01:02:25.020Z,76.76
2023-05-29T01:04:56.749Z,76.68
2023-05-29T01:07:28.510Z,76.24
2023-05-29T01:10:00.068Z,76.84
2023-05-29T01:12:42.663Z,75.26
2023-05-29T01:15:28.200Z,76.54
2023-05-29T01:18:13.034Z,76.79
2023-05-29T01:20:49.720Z,76.13
2023-05-29T01:23:38.620Z,76.93
2023-05-29T01:26:27.753Z,77.05
2023-05-29T01:29:02.654Z,77.23
2023-05-29T01:31:35.192Z,77.28
2023-05-29T01:34:06.825Z,77.23
2023-05-29T01:36:37.311Z,77.15
2023-05-29T01:39:10.204Z,77.25
2023-05-29T01:41:42.787Z,76.84
2023-05-29T01:44:15.229Z,75.20
2023-05-29T01:46:47.542Z,76.11
2023-05-29T01:49:20.217Z,76.57
2023-05-29T01:51:51.834Z,76.68
2023-05-29T01:54:23.788Z,76.73
2023-05-29T01:56:56.287Z,76.95
2023-05-29T01:59:28.543Z,77.21
2023-05-29T02:02:00.044Z,77.13
2023-05-29T02:04:31.605Z,76.87
2023-05-29T02:07:01.720Z,76.20
2023-05-29T02:09:33.271Z,75.90
2023-05-29T02:12:05.043Z,76.20
2023-05-29T02:14:37.941Z,76.54
2023-05-29T02:17:10.335Z,76.49
2023-05-29T02:19:41.993Z,76.62
2023-05-29T02:22:14.261Z,76.83
2023-05-29T02:24:45.793Z,77.08
2023-05-29T02:27:15.970Z,76.92
2023-05-29T02:29:47.575Z,76.86
2023-05-29T02:32:19.442Z,77.13
2023-05-29T02:34:50.596Z,76.96
2023-05-29T02:37:26.362Z,76.55
2023-05-29T02:39:57.906Z,76.83
2023-05-29T02:42:28.012Z,77.08
2023-05-29T02:44:59.546Z,77.22
2023-05-29T02:47:31.305Z,76.70
2023-05-29T02:50:03.507Z,76.35
2023-05-29T02:52:37.709Z,76.56
2023-05-29T02:55:11.368Z,76.76
2023-05-29T02:57:42.933Z,77.24
2023-05-29T03:00:14.998Z,76.84
2023-05-29T03:02:46.991Z,76.55
2023-05-29T03:05:18.744Z,76.10
2023-05-29T03:07:48.872Z,75.43
2023-05-29T03:10:20.515Z,75.23
2023-05-29T03:12:50.667Z,76.41
2023-05-29T03:15:22.301Z,75.46
2023-05-29T03:17:54.094Z,74.37
2023-05-29T03:20:30.184Z,73.78
2023-05-29T03:23:02.969Z,74.52
2023-05-29T03:25:34.891Z,75.63
2023-05-29T03:28:04.980Z,75.76
2023-05-29T03:30:37.094Z,75.73
2023-05-29T03:33:08.771Z,74.79
2023-05-29T03:36:00.246Z,73.98
2023-05-29T03:38:32.107Z,72.88
2023-05-29T03:41:04.306Z,71.61
2023-05-29T03:43:34.453Z,70.10
2023-05-29T03:46:06.358Z,69.89
2023-05-29T03:48:39.344Z,67.61
2023-05-29T03:51:09.439Z,66.75
2023-05-29T03:53:42.028Z,66.63
2023-05-29T03:56:13.872Z,65.06
2023-05-29T03:58:45.672Z,64.46
2023-05-29T04:01:18.082Z,64.09
2023-05-29T04:03:48.214Z,63.46
2023-05-29T04:06:19.932Z,63.09
2023-05-29T04:08:50.068Z,62.50
2023-05-29T04:11:23.323Z,62.08
2023-05-29T04:13:54.926Z,61.69
2023-05-29T04:16:26.576Z,61.25
2023-05-29T04:18:58.260Z,60.60
2023-05-29T04:21:33.709Z,59.66
2023-05-29T04:24:06.601Z,58.54
2023-05-29T04:26:42.131Z,58.00
2023-05-29T04:29:15.067Z,58.23
2023-05-29T04:31:48.233Z,57.70
2023-05-29T04:34:21.214Z,57.35
2023-05-29T04:36:52.866Z,56.45
2023-05-29T04:39:24.393Z,55.88
2023-05-29T04:41:59.685Z,55.50
2023-05-29T04:44:34.084Z,54.88
2023-05-29T04:47:07.479Z,54.28
2023-05-29T04:49:40.118Z,53.43
2023-05-29T04:52:13.037Z,52.81
2023-05-29T04:54:44.994Z,52.02
2023-05-29T04:57:18.160Z,51.00
2023-05-29T04:59:49.692Z,50.26
2023-05-29T05:02:21.270Z,49.11
2023-05-29T05:04:52.888Z,48.28
2023-05-29T05:07:24.542Z,47.22
2023-05-29T05:09:56.688Z,46.30
2023-05-29T05:12:31.156Z,45.95
2023-05-29T05:15:02.893Z,45.52
2023-05-29T05:17:35.186Z,45.28
2023-05-29T05:20:09.661Z,44.53
2023-05-29T05:22:41.892Z,43.69
2023-05-29T05:25:13.900Z,42.70
2023-05-29T05:27:46.042Z,41.34
2023-05-29T05:30:18.489Z,40.59
2023-05-29T05:32:50.297Z,39.83
2023-05-29T05:35:22.495Z,39.32
2023-05-29T05:37:54.208Z,39.24
2023-05-29T05:40:27.701Z,38.32
2023-05-29T05:43:04.450Z,37.54
2023-05-29T05:45:56.133Z,36.66
2023-05-29T05:48:28.142Z,35.99
2023-05-29T05:51:00.036Z,34.97
2023-05-29T05:53:31.793Z,34.68
2023-05-29T05:56:03.437Z,33.60
2023-05-29T05:58:35.192Z,34.56
2023-05-29T06:01:08.625Z,34.72
2023-05-29T06:03:40.603Z,33.29
2023-05-29T06:06:14.067Z,32.89
2023-05-29T06:08:48.746Z,33.51
2023-05-29T06:11:20.896Z,32.74
2023-05-29T06:13:53.625Z,35.02
2023-05-29T06:16:28.902Z,34.24
2023-05-29T06:19:00.742Z,34.34
2023-05-29T06:21:33.809Z,34.31
2023-05-29T06:24:07.882Z,34.78
2023-05-29T06:26:39.620Z,35.50
2023-05-29T06:29:11.932Z,36.07
2023-05-29T06:31:44.865Z,35.99
2023-05-29T06:34:17.492Z,36.59
2023-05-29T06:36:49.109Z,36.37
2023-05-29T06:39:21.155Z,36.86
2023-05-29T06:41:52.778Z,36.25
2023-05-29T06:44:24.268Z,36.29
2023-05-29T06:46:55.887Z,36.11
2023-05-29T06:49:27.554Z,35.11
2023-05-29T06:51:59.051Z,35.28
2023-05-29T06:54:50.566Z,35.08
2023-05-29T06:57:22.230Z,35.12
2023-05-29T06:59:53.966Z,34.72
2023-05-29T07:02:25.646Z,34.46
2023-05-29T07:04:59.851Z,34.73
2023-05-29T07:07:31.840Z,34.83
2023-05-29T07:10:03.540Z,34.79
2023-05-29T07:12:35.334Z,34.52
2023-05-29T07:15:09.999Z,34.23
2023-05-29T07:17:45.705Z,33.95
2023-05-29T07:20:24.434Z,33.26
2023-05-29T07:22:56.085Z,33.93
2023-05-29T07:25:27.831Z,35.01
2023-05-29T07:28:10.678Z,35.97
2023-05-29T07:30:52.313Z,36.87
2023-05-29T07:33:23.943Z,36.97
2023-05-29T07:35:59.913Z,37.43
2023-05-29T07:38:33.021Z,38.03
2023-05-29T07:41:04.847Z,38.59
2023-05-29T07:43:38.542Z,39.17
2023-05-29T07:46:11.968Z,39.37
2023-05-29T07:48:46.936Z,39.78
2023-05-29T07:51:18.717Z,40.50
2023-05-29T07:53:51.645Z,40.45
2023-05-29T07:56:23.540Z,40.63
2023-05-29T07:58:55.960Z,40.58
2023-05-29T08:01:28.223Z,40.42
2023-05-29T08:04:00.317Z,40.24
2023-05-29T08:06:35.775Z,40.48
2023-05-29T08:09:07.801Z,40.76
2023-05-29T08:11:39.577Z,40.89
2023-05-29T08:14:11.124Z,40.29
2023-05-29T08:16:44.307Z,40.36
2023-05-29T08:19:16.406Z,40.69
2023-05-29T08:21:48.116Z,40.49
2023-05-29T08:24:21.133Z,39.93
2023-05-29T08:26:53.009Z,39.67
2023-05-29T08:29:24.718Z,39.78
2023-05-29T08:31:56.394Z,40.36
2023-05-29T08:34:28.094Z,40.30
2023-05-29T08:36:59.619Z,40.07
2023-05-29T08:39:31.245Z,40.22
2023-05-29T08:42:09.520Z,40.54
2023-05-29T08:44:42.887Z,40.84
2023-05-29T08:47:19.278Z,40.32
2023-05-29T08:49:54.952Z,40.26
2023-05-29T08:52:27.806Z,40.49
2023-05-29T08:55:01.606Z,40.62
2023-05-29T08:57:34.635Z,40.33
2023-05-29T09:00:10.827Z,39.98
2023-05-29T09:02:42.635Z,39.37
2023-05-29T09:05:15.891Z,39.52
2023-05-29T09:07:48.094Z,39.72
2023-05-29T09:10:19.850Z,39.62
2023-05-29T09:12:52.407Z,38.96
2023-05-29T09:15:25.857Z,38.67
2023-05-29T09:17:59.321Z,39.08
2023-05-29T09:20:31.370Z,38.55
2023-05-29T09:23:05.426Z,38.11
2023-05-29T09:25:41.386Z,38.81
2023-05-29T09:28:14.177Z,38.68
2023-05-29T09:30:48.531Z,38.68
2023-05-29T09:33:22.107Z,37.70
2023-05-29T09:35:54.700Z,37.88
2023-05-29T09:38:38.427Z,38.16
2023-05-29T09:41:24.799Z,38.31
2023-05-29T09:43:57.228Z,38.22
2023-05-29T09:46:29.717Z,37.43
2023-05-29T09:49:05.050Z,37.43
2023-05-29T09:51:37.728Z,38.08
2023-05-29T09:54:19.596Z,37.65
2023-05-29T09:56:52.412Z,37.76
2023-05-29T09:59:27.230Z,38.20
2023-05-29T10:02:05.154Z,38.45
2023-05-29T10:04:38.127Z,38.22
2023-05-29T10:07:14.805Z,37.84
2023-05-29T10:09:51.709Z,38.20
2023-05-29T10:12:24.651Z,38.40
2023-05-29T10:14:59.184Z,38.41
2023-05-29T10:17:36.862Z,37.97
2023-05-29T10:20:12.031Z,38.22
2023-05-29T10:22:48.958Z,37.71
2023-05-29T10:25:22.604Z,37.64
2023-05-29T10:27:55.304Z,37.61
2023-05-29T10:30:36.764Z,36.89
2023-05-29T10:33:23.973Z,37.07
2023-05-29T10:36:03.365Z,37.04
2023-05-29T10:38:35.897Z,36.36
2023-05-29T10:41:40.720Z,36.27
2023-05-29T10:44:39.760Z,36.67
2023-05-29T10:47:13.657Z,36.78
2023-05-29T10:49:54.591Z,37.17
2023-05-29T10:52:26.372Z,37.42
2023-05-29T10:54:59.077Z,36.37
2023-05-29T10:57:37.065Z,35.69
2023-05-29T11:00:24.440Z,36.16
2023-05-29T11:02:56.412Z,36.20
2023-05-29T11:05:28.865Z,36.03
2023-05-29T11:08:04.430Z,36.52
2023-05-29T11:10:59.759Z,36.50
2023-05-29T11:13:38.973Z,36.35
2023-05-29T11:16:38.048Z,36.55
2023-05-29T11:19:12.087Z,36.72
2023-05-29T11:21:58.909Z,36.66
2023-05-29T11:24:31.428Z,37.21
2023-05-29T11:27:07.545Z,36.76
2023-05-29T11:29:40.201Z,37.16
2023-05-29T11:32:18.698Z,36.88
2023-05-29T11:34:54.257Z,36.67
2023-05-29T11:37:27.173Z,36.42
2023-05-29T11:39:59.113Z,36.26
2023-05-29T11:42:31.020Z,36.62
2023-05-29T11:45:18.052Z,36.61
2023-05-29T11:48:00.648Z,36.74
2023-05-29T11:50:38.488Z,36.75
2023-05-29T11:53:11.356Z,35.99
2023-05-29T11:55:47.319Z,36.24
2023-05-29T11:58:19.525Z,36.46
2023-05-29T12:00:53.718Z,36.23
2023-05-29T12:03:26.281Z,36.57
2023-05-29T12:05:58.755Z,37.49
2023-05-29T12:08:31.730Z,36.96
2023-05-29T12:11:04.319Z,36.64
2023-05-29T12:13:43.514Z,36.27
2023-05-29T12:16:16.712Z,36.49
2023-05-29T12:18:49.302Z,36.34
2023-05-29T12:21:22.195Z,36.65
2023-05-29T12:24:03.176Z,36.41
2023-05-29T12:26:48.418Z,36.41
2023-05-29T12:29:20.268Z,36.31
2023-05-29T12:32:02.188Z,36.32
2023-05-29T12:34:40.624Z,36.21
2023-05-29T12:37:15.192Z,36.56
2023-05-29T12:39:47.100Z,36.31
2023-05-29T12:42:20.336Z,35.93
2023-05-29T12:44:52.184Z,34.98
2023-05-29T12:47:28.262Z,35.54
2023-05-29T12:50:00.029Z,35.70
2023-05-29T12:52:31.964Z,34.87
2023-05-29T12:55:04.043Z,34.56
2023-05-29T12:57:36.251Z,34.76
2023-05-29T13:00:12.890Z,35.24
2023-05-29T13:02:44.787Z,34.90
2023-05-29T13:05:19.998Z,34.91
2023-05-29T13:07:52.670Z,35.36
2023-05-29T13:10:26.722Z,35.94
2023-05-29T13:13:00.409Z,36.16
2023-05-29T13:15:34.139Z,36.07
2023-05-29T13:18:07.044Z,35.31
2023-05-29T13:20:41.058Z,35.26
2023-05-29T13:23:13.257Z,35.62
2023-05-29T13:25:45.336Z,35.52
2023-05-29T13:28:17.496Z,35.28
2023-05-29T13:30:50.256Z,35.41
2023-05-29T13:33:22.415Z,35.75
2023-05-29T13:35:55.862Z,34.54
2023-05-29T13:38:29.335Z,35.10
2023-05-29T13:41:02.904Z,35.42
2023-05-29T13:43:43.693Z,35.32
2023-05-29T13:46:17.034Z,35.90
2023-05-29T13:48:48.803Z,35.87
2023-05-29T13:51:20.504Z,35.80
2023-05-29T13:53:52.226Z,35.65
2023-05-29T13:56:24.049Z,35.37
2023-05-29T13:58:55.941Z,35.45
2023-05-29T14:01:28.151Z,35.35
2023-05-29T14:04:00.131Z,35.16
2023-05-29T14:06:33.414Z,34.44
2023-05-29T14:09:05.901Z,34.81
2023-05-29T14:11:38.205Z,35.21
2023-05-29T14:14:11.107Z,34.93
2023-05-29T14:16:42.974Z,34.47
2023-05-29T14:19:15.007Z,34.74
2023-05-29T14:21:47.206Z,35.16
2023-05-29T14:24:19.276Z,34.87
2023-05-29T14:26:51.947Z,34.55
2023-05-29T14:29:23.623Z,34.52
2023-05-29T14:31:55.434Z,34.21
2023-05-29T14:34:27.694Z,34.27
2023-05-29T14:37:01.656Z,34.58
2023-05-29T14:39:34.043Z,34.76
2023-05-29T14:42:07.859Z,34.83
2023-05-29T14:44:43.183Z,35.08
2023-05-29T14:47:15.820Z,35.32
2023-05-29T14:49:48.159Z,35.67
2023-05-29T14:52:20.726Z,35.58
2023-05-29T14:54:56.041Z,35.53
2023-05-29T14:57:28.432Z,35.50
2023-05-29T15:00:01.114Z,35.45
2023-05-29T15:02:33.879Z,35.24
2023-05-29T15:05:11.307Z,35.13
2023-05-29T15:07:50.788Z,34.96
2023-05-29T15:10:27.949Z,34.62
2023-05-29T15:13:09.653Z,34.81
2023-05-29T15:15:48.585Z,34.55
2023-05-29T15:18:31.449Z,34.66
2023-05-29T15:21:04.541Z,34.73
2023-05-29T15:23:45.110Z,34.86
2023-05-29T15:26:29.167Z,34.75
2023-05-29T15:29:01.452Z,34.96
2023-05-29T15:31:35.500Z,34.93
2023-05-29T15:34:12.535Z,34.47
2023-05-29T15:36:49.577Z,34.45
2023-05-29T15:39:22.223Z,34.19
2023-05-29T15:41:55.385Z,33.76
2023-05-29T15:44:31.766Z,33.94
2023-05-29T15:47:07.621Z,33.83
2023-05-29T15:49:46.022Z,33.82
2023-05-29T15:52:22.541Z,34.08
2023-05-29T15:55:09.064Z,34.03
2023-05-29T15:57:42.688Z,33.96
2023-05-29T16:00:17.043Z,34.30
2023-05-29T16:02:54.364Z,34.48
2023-05-29T16:05:38.163Z,34.45
2023-05-29T16:08:13.505Z,34.70
2023-05-29T16:10:48.611Z,34.39
2023-05-29T16:13:21.702Z,34.17
2023-05-29T16:15:53.649Z,33.98
2023-05-29T16:18:31.861Z,33.77
2023-05-29T16:21:03.830Z,34.02
2023-05-29T16:23:35.990Z,34.11
2023-05-29T16:26:08.375Z,33.99
2023-05-29T16:28:42.578Z,33.83
2023-05-29T16:31:14.807Z,33.79
2023-05-29T16:33:46.851Z,34.05
2023-05-29T16:36:20.050Z,34.25
2023-05-29T16:38:52.284Z,34.20
2023-05-29T16:41:24.208Z,34.24
2023-05-29T16:43:56.397Z,34.38
2023-05-29T16:46:28.644Z,34.60
2023-05-29T16:49:00.528Z,34.72
2023-05-29T16:51:32.310Z,35.08
2023-05-29T16:54:04.251Z,35.29
2023-05-29T16:56:36.300Z,35.12
2023-05-29T16:59:08.294Z,35.18
2023-05-29T17:01:40.480Z,35.16
2023-05-29T17:04:12.567Z,35.16
2023-05-29T17:06:46.709Z,35.08
2023-05-29T17:09:19.159Z,34.96
2023-05-29T17:11:53.491Z,35.04
2023-05-29T17:14:27.652Z,35.03
2023-05-29T17:17:04.016Z,35.12
2023-05-29T17:19:39.821Z,35.22
2023-05-29T17:22:15.835Z,35.39
2023-05-29T17:24:48.226Z,35.56
2023-05-29T17:27:23.225Z,35.68
2023-05-29T17:29:56.071Z,35.81
2023-05-29T17:32:28.062Z,36.13
2023-05-29T17:35:03.960Z,36.28
2023-05-29T17:37:39.189Z,36.40
2023-05-29T17:40:18.694Z,36.73
2023-05-29T17:42:54.753Z,37.05
2023-05-29T17:45:32.809Z,37.35
2023-05-29T17:48:05.442Z,37.68
2023-05-29T17:50:40.142Z,38.47
2023-05-29T17:53:15.247Z,39.25
2023-05-29T17:55:48.231Z,40.89
2023-05-29T17:58:32.021Z,42.93
2023-05-29T18:01:04.864Z,44.84
2023-05-29T18:03:37.842Z,46.53
2023-05-29T18:06:10.574Z,46.33
2023-05-29T18:08:46.126Z,46.00
2023-05-29T18:11:20.988Z,46.24
2023-05-29T18:14:09.090Z,47.52
2023-05-29T18:16:48.310Z,46.71
2023-05-29T18:19:22.023Z,47.82
2023-05-29T18:21:54.415Z,48.85
2023-05-29T18:24:27.567Z,48.44
2023-05-29T18:26:59.519Z,48.97
2023-05-29T18:29:33.497Z,48.66
2023-05-29T18:32:07.276Z,47.95
2023-05-29T18:34:39.988Z,48.95
2023-05-29T18:37:13.311Z,50.20
2023-05-29T18:39:52.516Z,50.98
2023-05-29T18:42:27.691Z,50.69
2023-05-29T18:45:16.056Z,50.92
2023-05-29T18:47:54.312Z,51.21
2023-05-29T18:50:31.081Z,51.25
2023-05-29T18:53:13.804Z,52.83
2023-05-29T18:55:49.587Z,53.35
2023-05-29T18:58:22.307Z,53.76
2023-05-29T19:01:01.936Z,54.49
2023-05-29T19:03:54.920Z,53.72
2023-05-29T19:06:29.915Z,54.33
2023-05-29T19:09:03.676Z,54.79
2023-05-29T19:11:38.442Z,55.42
2023-05-29T19:14:11.878Z,56.35
2023-05-29T19:16:47.435Z,56.10
2023-05-29T19:19:23.722Z,57.20
2023-05-29T19:22:01.580Z,57.52
2023-05-29T19:24:35.951Z,58.42
2023-05-29T19:27:17.774Z,58.63
2023-05-29T19:29:54.136Z,58.93
2023-05-29T19:32:28.380Z,58.67
2023-05-29T19:35:01.012Z,58.65
2023-05-29T19:37:38.993Z,59.42
2023-05-29T19:40:13.795Z,59.40
2023-05-29T19:42:48.834Z,59.39
2023-05-29T19:45:23.633Z,59.95
2023-05-29T19:48:05.039Z,60.25
2023-05-29T19:50:44.734Z,59.72
2023-05-29T19:53:19.694Z,60.05
2023-05-29T19:55:52.461Z,60.68
2023-05-29T19:58:26.063Z,60.43
2023-05-29T20:00:59.534Z,60.53
2023-05-29T20:03:35.307Z,60.90
2023-05-29T20:06:08.670Z,60.99
2023-05-29T20:08:43.765Z,62.06
2023-05-29T20:11:23.049Z,62.90
2023-05-29T20:14:01.404Z,63.17
2023-05-29T20:16:42.215Z,63.34
2023-05-29T20:19:24.160Z,63.09
2023-05-29T20:22:00.144Z,63.15
2023-05-29T20:24:33.015Z,63.86
2023-05-29T20:27:07.491Z,63.63
2023-05-29T20:29:39.757Z,63.55
2023-05-29T20:32:11.917Z,63.70
2023-05-29T20:34:52.822Z,64.07
2023-05-29T20:37:25.290Z,64.29
2023-05-29T20:39:57.274Z,64.05
2023-05-29T20:42:35.253Z,63.10
2023-05-29T20:45:08.858Z,63.92
2023-05-29T20:47:41.282Z,64.34
2023-05-29T20:50:16.887Z,63.47
2023-05-29T20:52:50.088Z,63.81
2023-05-29T20:55:23.307Z,64.70
2023-05-29T20:58:00.557Z,65.11
2023-05-29T21:00:34.429Z,65.26
2023-05-29T21:03:06.844Z,65.20
2023-05-29T21:05:41.725Z,65.13
2023-05-29T21:08:15.958Z,65.31
2023-05-29T21:10:47.745Z,64.74
2023-05-29T21:13:22.375Z,65.05
2023-05-29T21:15:55.200Z,65.63
2023-05-29T21:18:27.110Z,66.01
2023-05-29T21:20:59.114Z,66.03
2023-05-29T21:23:31.268Z,65.86
2023-05-29T21:26:04.467Z,66.08
2023-05-29T21:28:38.160Z,66.27
2023-05-29T21:31:10.161Z,66.63
2023-05-29T21:33:43.300Z,66.50
2023-05-29T21:36:14.921Z,66.27
2023-05-29T21:38:49.316Z,66.92
2023-05-29T21:41:21.219Z,66.91
2023-05-29T21:43:54.111Z,67.13
2023-05-29T21:46:25.805Z,66.53
2023-05-29T21:48:57.535Z,66.16
2023-05-29T21:51:31.244Z,67.84
2023-05-29T21:54:02.957Z,68.47
2023-05-29T21:56:34.566Z,68.01
2023-05-29T21:59:07.082Z,67.33
2023-05-29T22:01:39.068Z,68.61
2023-05-29T22:04:11.271Z,69.31
2023-05-29T22:06:44.033Z,69.61
2023-05-29T22:09:16.105Z,68.24
2023-05-29T22:11:49.362Z,68.02
2023-05-29T22:14:21.499Z,67.69
2023-05-29T22:16:54.910Z,69.41
2023-05-29T22:19:26.778Z,70.05
2023-05-29T22:21:58.350Z,70.21
2023-05-29T22:24:30.028Z,68.16
2023-05-29T22:27:01.846Z,69.34
2023-05-29T22:29:33.397Z,70.59
2023-05-29T22:32:05.824Z,71.02
2023-05-29T22:34:38.328Z,70.98
2023-05-29T22:37:10.345Z,71.52
2023-05-29T22:39:42.325Z,71.52
2023-05-29T22:42:14.267Z,71.79
2023-05-29T22:44:46.027Z,71.86
2023-05-29T22:47:19.085Z,72.06
2023-05-29T22:49:51.021Z,72.06
2023-05-29T22:52:22.891Z,71.23
2023-05-29T22:54:55.345Z,71.33
2023-05-29T22:57:26.978Z,71.50
2023-05-29T22:59:58.578Z,71.68
2023-05-29T23:02:30.700Z,71.74
2023-05-29T23:05:02.785Z,72.02
2023-05-29T23:07:34.902Z,72.22
2023-05-29T23:10:07.121Z,72.62
2023-05-29T23:12:38.984Z,72.52
2023-05-29T23:15:13.709Z,72.91
2023-05-29T23:17:45.678Z,72.86
2023-05-29T23:20:19.798Z,72.89
2023-05-29T23:22:51.558Z,73.02
2023-05-29T23:25:23.191Z,73.17
2023-05-29T23:27:54.825Z,73.08
2023-05-29T23:30:26.486Z,73.01
2023-05-29T23:32:58.120Z,73.14
2023-05-29T23:35:29.756Z,73.07
2023-05-29T23:38:02.039Z,73.20
2023-05-29T23:40:33.557Z,73.28
2023-05-29T23:43:05.215Z,73.62
2023-05-29T23:45:36.776Z,74.00
2023-05-29T23:48:07.088Z,73.76
2023-05-29T23:50:39.393Z,73.68
2023-05-29T23:53:11.569Z,73.97
2023-05-29T23:55:43.284Z,73.89
2023-05-29T23:58:14.838Z,73.98
